Time;durP1;ratioP1;P1;durP2;ratioP2;P2;SDS_P1;SDS_P2;PMS_P1;PMS_P2;Temp;Humidity;BMP_temperature;BMP_pressure;BME280_temperature;BME280_humidity;BME280_pressure;Samples;Min_cycle;Max_cycle;Signal;HPM_P1;HPM_P2
2023/11/14 00:01:03;;;;;;;6.88;3.33;;;;;;;;;;5102435;28;20201;-52
2023/11/14 00:03:30;;;;;;;14.80;3.45;;;;;;;;;;5098956;28;20327;-43
2023/11/14 00:05:57;;;;;;;7.78;3.30;;;;;;;;;;5094121;28;20020;-41
2023/11/14 00:08:23;;;;;;;9.05;3.42;;;;;;;;;;5101870;28;20284;-49
2023/11/14 00:10:51;;;;;;;8.48;3.80;;;;;;;;;;5105597;28;20036;-44
2023/11/14 00:13:18;;;;;;;10.93;3.72;;;;;;;;;;5092215;28;20044;-49
2023/11/14 00:15:44;;;;;;;10.65;3.90;;;;;;;;;;5104545;28;20024;-42
2023/11/14 00:18:11;;;;;;;5.88;4.22;;;;;;;;;;5094573;28;20063;-47
2023/11/14 00:20:38;;;;;;;5.57;3.92;;;;;;;;;;5086180;28;20287;-47
2023/11/14 00:23:04;;;;;;;7.88;3.70;;;;;;;;;;5095430;28;20026;-50
2023/11/14 00:25:31;;;;;;;8.65;3.45;;;;;;;;;;5106322;28;20177;-46
2023/11/14 00:27:58;;;;;;;6.45;3.58;;;;;;;;;;5096370;28;20035;-49
2023/11/14 00:30:24;;;;;;;6.00;3.58;;;;;;;;;;5086231;28;20024;-45
2023/11/14 00:32:52;;;;;;;6.07;3.58;;;;;;;;;;5086053;28;20220;-48
2023/11/14 00:35:19;;;;;;;6.35;3.15;;;;;;;;;;5086227;28;20041;-49
2023/11/14 00:37:45;;;;;;;5.85;3.67;;;;;;;;;;5085799;28;20317;-48
2023/11/14 00:40:12;;;;;;;6.10;3.28;;;;;;;;;;5097655;28;20050;-47
2023/11/14 00:42:39;;;;;;;6.32;3.40;;;;;;;;;;5093743;28;20104;-43
2023/11/14 00:45:05;;;;;;;5.47;3.35;;;;;;;;;;5086366;28;20040;-53
2023/11/14 00:47:33;;;;;;;7.50;3.45;;;;;;;;;;5085513;28;20039;-47
2023/11/14 00:49:59;;;;;;;10.77;5.13;;;;;;;;;;5095083;28;20115;-50
2023/11/14 00:52:26;;;;;;;11.00;4.15;;;;;;;;;;5087099;28;20027;-54
2023/11/14 00:54:52;;;;;;;5.82;3.65;;;;;;;;;;5086240;28;20039;-50
2023/11/14 00:57:19;;;;;;;8.18;3.88;;;;;;;;;;5085420;28;20051;-50
2023/11/14 00:59:46;;;;;;;12.18;7.25;;;;;;;;;;5097532;28;20052;-51
2023/11/14 01:02:12;;;;;;;22.02;13.70;;;;;;;;;;5097083;28;20055;-48
2023/11/14 01:04:40;;;;;;;15.32;9.48;;;;;;;;;;5085771;28;20054;-53
2023/11/14 01:07:07;;;;;;;9.30;5.32;;;;;;;;;;5085348;28;20024;-42
2023/11/14 01:09:35;;;;;;;6.45;4.25;;;;;;;;;;5085745;28;20062;-47
2023/11/14 01:12:02;;;;;;;10.20;4.68;;;;;;;;;;5086643;28;20089;-48
2023/11/14 01:14:29;;;;;;;7.20;4.82;;;;;;;;;;5105603;28;20024;-50
2023/11/14 01:16:56;;;;;;;6.45;4.45;;;;;;;;;;5105277;28;20047;-48
2023/11/14 01:19:23;;;;;;;5.80;3.50;;;;;;;;;;5105641;28;20100;-52
2023/11/14 01:21:49;;;;;;;5.80;3.83;;;;;;;;;;5105088;28;20052;-50
2023/11/14 01:24:19;;;;;;;7.90;3.92;;;;;;;;;;5085161;28;20037;-50
2023/11/14 01:26:46;;;;;;;5.38;3.45;;;;;;;;;;5084875;28;20043;-44
2023/11/14 01:29:12;;;;;;;6.70;4.55;;;;;;;;;;5085005;28;20055;-49
2023/11/14 01:31:39;;;;;;;4.75;2.97;;;;;;;;;;5093778;28;20036;-46
2023/11/14 01:34:05;;;;;;;5.35;3.53;;;;;;;;;;5101328;28;20031;-43
2023/11/14 01:36:32;;;;;;;5.15;2.80;;;;;;;;;;5098008;28;20028;-47
2023/11/14 01:38:59;;;;;;;7.10;3.33;;;;;;;;;;5091988;28;20072;-56
2023/11/14 01:41:26;;;;;;;6.50;2.95;;;;;;;;;;5092238;28;20036;-45
2023/11/14 01:43:52;;;;;;;6.72;3.05;;;;;;;;;;5089157;28;20034;-46
2023/11/14 01:46:19;;;;;;;4.57;3.17;;;;;;;;;;5096304;28;20043;-45
2023/11/14 01:48:47;;;;;;;5.68;3.05;;;;;;;;;;5093787;28;20036;-53
2023/11/14 01:51:14;;;;;;;5.43;3.20;;;;;;;;;;5104485;28;20078;-59
2023/11/14 01:53:41;;;;;;;6.88;3.30;;;;;;;;;;5104779;28;20045;-59
2023/11/14 01:56:09;;;;;;;8.85;2.95;;;;;;;;;;5104528;28;20039;-54
2023/11/14 01:58:37;;;;;;;6.20;3.40;;;;;;;;;;5103185;28;20042;-56
2023/11/14 02:01:04;;;;;;;6.45;2.72;;;;;;;;;;5103939;28;20036;-44
2023/11/14 02:03:31;;;;;;;5.82;3.10;;;;;;;;;;5104353;28;20031;-54
2023/11/14 02:05:58;;;;;;;6.97;3.20;;;;;;;;;;5117568;28;20200;-58
2023/11/14 02:08:25;;;;;;;5.53;3.00;;;;;;;;;;5104609;28;20099;-58
2023/11/14 02:10:52;;;;;;;5.50;3.10;;;;;;;;;;5104387;28;20077;-59
2023/11/14 02:13:19;;;;;;;5.75;2.95;;;;;;;;;;5104194;28;20032;-53
2023/11/14 02:15:49;;;;;;;6.50;3.38;;;;;;;;;;5104528;28;20040;-54
2023/11/14 02:18:19;;;;;;;7.63;3.25;;;;;;;;;;5104280;28;20032;-46
2023/11/14 02:20:46;;;;;;;6.60;3.55;;;;;;;;;;5104325;28;20024;-44
2023/11/14 02:23:16;;;;;;;6.18;3.05;;;;;;;;;;5098981;28;20028;-44
2023/11/14 02:25:43;;;;;;;6.45;3.00;;;;;;;;;;5098014;28;20046;-44
2023/11/14 02:28:10;;;;;;;6.45;3.38;;;;;;;;;;5096276;28;20039;-44
2023/11/14 02:30:38;;;;;;;6.60;3.25;;;;;;;;;;5084090;28;20084;-44
2023/11/14 02:33:08;;;;;;;3.55;2.88;;;;;;;;;;5083872;28;20247;-51
2023/11/14 02:35:34;;;;;;;3.58;2.72;;;;;;;;;;5084044;28;20040;-43
2023/11/14 02:38:01;;;;;;;8.45;3.35;;;;;;;;;;5082633;28;20232;-50
2023/11/14 02:40:28;;;;;;;4.60;2.92;;;;;;;;;;5083993;28;20028;-43
2023/11/14 02:42:54;;;;;;;5.75;3.05;;;;;;;;;;5083629;28;20212;-46
2023/11/14 02:45:21;;;;;;;7.40;3.53;;;;;;;;;;5083906;28;20109;-45
2023/11/14 02:47:49;;;;;;;5.45;3.00;;;;;;;;;;5089320;28;20335;-43
2023/11/14 02:50:38;;;;;;;4.75;3.30;;;;;;;;;;5090549;28;20063;-52
2023/11/14 02:53:05;;;;;;;5.45;3.40;;;;;;;;;;5090053;28;20308;-45
2023/11/14 02:55:31;;;;;;;16.08;10.88;;;;;;;;;;5090691;28;20097;-48
2023/11/14 02:57:58;;;;;;;11.80;8.85;;;;;;;;;;5095269;28;20370;-50
2023/11/14 03:00:24;;;;;;;12.05;7.32;;;;;;;;;;5108534;28;20334;-47
2023/11/14 03:02:51;;;;;;;12.57;8.32;;;;;;;;;;5108477;28;20216;-48
2023/11/14 03:05:18;;;;;;;10.43;7.28;;;;;;;;;;5102568;28;20043;-46
2023/11/14 03:07:44;;;;;;;8.82;5.88;;;;;;;;;;5110823;28;20031;-46
2023/11/14 03:10:11;;;;;;;7.78;5.95;;;;;;;;;;5111181;28;20031;-46
2023/11/14 03:12:37;;;;;;;8.25;5.35;;;;;;;;;;5110617;28;20039;-50
2023/11/14 03:15:04;;;;;;;9.32;6.43;;;;;;;;;;5110962;28;20027;-51
2023/11/14 03:17:31;;;;;;;7.15;5.32;;;;;;;;;;5109549;28;20008;-53
2023/11/14 03:19:58;;;;;;;7.03;4.47;;;;;;;;;;5111063;28;20032;-50
2023/11/14 03:22:24;;;;;;;7.20;4.32;;;;;;;;;;5109014;28;20036;-46
2023/11/14 03:24:51;;;;;;;4.85;3.78;;;;;;;;;;5110947;28;20024;-43
2023/11/14 03:27:18;;;;;;;4.60;3.25;;;;;;;;;;5110460;28;20038;-48
2023/11/14 03:29:44;;;;;;;9.23;4.30;;;;;;;;;;5110642;28;20314;-48
2023/11/14 03:32:11;;;;;;;8.40;3.53;;;;;;;;;;5110453;28;20016;-47
2023/11/14 03:34:37;;;;;;;4.38;3.47;;;;;;;;;;5110865;28;20320;-45
2023/11/14 03:37:04;;;;;;;5.28;3.60;;;;;;;;;;5110319;28;20078;-49
2023/11/14 03:39:33;;;;;;;3.83;3.20;;;;;;;;;;5102268;28;20035;-46
2023/11/14 03:41:59;;;;;;;5.78;3.50;;;;;;;;;;5106387;28;20036;-51
2023/11/14 03:44:26;;;;;;;5.70;3.20;;;;;;;;;;5110486;28;20032;-43
2023/11/14 03:46:53;;;;;;;4.40;3.63;;;;;;;;;;5110370;28;20024;-46
2023/11/14 03:49:19;;;;;;;5.65;3.50;;;;;;;;;;5110306;28;20055;-47
2023/11/14 03:51:46;;;;;;;5.13;3.85;;;;;;;;;;5110173;28;20320;-46
2023/11/14 03:54:12;;;;;;;6.32;3.72;;;;;;;;;;5110490;28;20279;-52
2023/11/14 03:56:39;;;;;;;4.22;3.33;;;;;;;;;;5110350;28;20035;-50
2023/11/14 03:59:05;;;;;;;5.95;3.50;;;;;;;;;;5107164;28;20361;-53
2023/11/14 04:01:32;;;;;;;5.57;4.20;;;;;;;;;;5107087;28;20408;-46
2023/11/14 04:03:59;;;;;;;4.13;3.60;;;;;;;;;;5107103;28;20040;-47
2023/11/14 04:06:25;;;;;;;5.20;3.72;;;;;;;;;;5107195;28;20091;-43
2023/11/14 04:08:52;;;;;;;5.63;3.60;;;;;;;;;;5106911;28;20031;-44
2023/11/14 04:11:19;;;;;;;5.50;3.47;;;;;;;;;;5106908;28;20056;-47
2023/11/14 04:13:45;;;;;;;7.18;3.63;;;;;;;;;;5107061;28;20189;-41
2023/11/14 04:16:13;;;;;;;4.32;3.75;;;;;;;;;;5106553;28;20079;-51
2023/11/14 04:18:42;;;;;;;5.07;3.53;;;;;;;;;;5106862;28;20039;-48
2023/11/14 04:21:19;;;;;;;6.65;3.70;;;;;;;;;;5106907;28;20069;-46
2023/11/14 04:23:46;;;;;;;4.65;3.80;;;;;;;;;;5106761;28;20303;-45
2023/11/14 04:26:15;;;;;;;7.70;3.80;;;;;;;;;;5106484;28;20027;-46
2023/11/14 04:28:42;;;;;;;5.93;3.50;;;;;;;;;;5106302;28;20365;-48
2023/11/14 04:31:09;;;;;;;5.18;3.40;;;;;;;;;;5106586;28;20024;-55
2023/11/14 04:33:35;;;;;;;7.68;3.97;;;;;;;;;;5106414;28;20242;-43
2023/11/14 04:36:02;;;;;;;5.65;3.85;;;;;;;;;;5106150;28;20016;-46
2023/11/14 04:38:28;;;;;;;5.00;3.47;;;;;;;;;;5106534;28;20024;-45
2023/11/14 04:40:55;;;;;;;4.72;3.60;;;;;;;;;;5106209;28;20039;-48
2023/11/14 04:43:23;;;;;;;4.75;3.80;;;;;;;;;;5106014;28;20032;-50
2023/11/14 04:45:49;;;;;;;4.38;3.40;;;;;;;;;;5106223;28;20020;-50
2023/11/14 04:48:16;;;;;;;4.75;3.45;;;;;;;;;;5105710;28;20051;-43
2023/11/14 04:50:43;;;;;;;6.78;3.78;;;;;;;;;;5105900;28;20113;-45
2023/11/14 04:53:09;;;;;;;5.28;3.60;;;;;;;;;;5105993;28;20032;-44
2023/11/14 04:55:36;;;;;;;7.32;4.25;;;;;;;;;;5105983;28;20070;-44
2023/11/14 04:58:02;;;;;;;6.95;3.85;;;;;;;;;;5105500;28;20027;-46
2023/11/14 05:00:29;;;;;;;8.20;4.00;;;;;;;;;;5105407;28;20057;-43
2023/11/14 05:02:56;;;;;;;6.40;3.83;;;;;;;;;;5093471;28;20048;-42
2023/11/14 05:05:23;;;;;;;5.72;3.42;;;;;;;;;;5096676;28;20020;-42
2023/11/14 05:07:50;;;;;;;10.90;3.63;;;;;;;;;;5085399;28;20036;-44
2023/11/14 05:10:17;;;;;;;7.82;3.83;;;;;;;;;;5084651;28;20335;-51
2023/11/14 05:12:44;;;;;;;7.38;3.50;;;;;;;;;;5085272;28;20024;-47
2023/11/14 05:15:11;;;;;;;7.35;3.50;;;;;;;;;;5085448;28;20316;-46
2023/11/14 05:17:37;;;;;;;5.65;3.78;;;;;;;;;;5085213;28;20033;-45
2023/11/14 05:20:06;;;;;;;8.00;3.60;;;;;;;;;;5085522;28;20038;-47
2023/11/14 05:22:33;;;;;;;9.10;3.90;;;;;;;;;;5084977;28;20020;-43
2023/11/14 05:25:00;;;;;;;5.57;3.65;;;;;;;;;;5085504;28;20218;-45
2023/11/14 05:27:27;;;;;;;4.80;3.45;;;;;;;;;;5084973;28;20066;-44
2023/11/14 05:29:53;;;;;;;7.03;3.85;;;;;;;;;;5085223;28;20042;-43
2023/11/14 05:32:20;;;;;;;6.13;3.80;;;;;;;;;;5084872;28;20039;-51
2023/11/14 05:34:47;;;;;;;6.13;3.90;;;;;;;;;;5085158;28;20096;-44
2023/11/14 05:37:13;;;;;;;5.57;3.58;;;;;;;;;;5084752;28;20031;-44
2023/11/14 05:39:40;;;;;;;4.38;3.58;;;;;;;;;;5085068;28;20077;-46
2023/11/14 05:42:07;;;;;;;7.25;3.80;;;;;;;;;;5084771;28;20031;-45
2023/11/14 05:44:33;;;;;;;6.25;3.80;;;;;;;;;;5084794;28;20237;-46
2023/11/14 05:47:02;;;;;;;5.75;3.75;;;;;;;;;;5084615;28;20086;-44
2023/11/14 05:49:29;;;;;;;7.80;3.85;;;;;;;;;;5084546;28;20093;-46
2023/11/14 05:51:56;;;;;;;7.25;3.63;;;;;;;;;;5084426;28;20066;-44
2023/11/14 05:54:23;;;;;;;6.28;3.60;;;;;;;;;;5084884;28;20033;-42
2023/11/14 05:56:49;;;;;;;5.07;3.40;;;;;;;;;;5084536;28;20020;-45
2023/11/14 05:59:16;;;;;;;5.90;3.20;;;;;;;;;;5084624;28;20024;-42
2023/11/14 06:01:42;;;;;;;8.20;3.80;;;;;;;;;;5084367;28;20048;-46
2023/11/14 06:04:09;;;;;;;6.20;3.55;;;;;;;;;;5084547;28;20029;-46
2023/11/14 06:06:35;;;;;;;4.28;3.75;;;;;;;;;;5084212;28;20023;-50
2023/11/14 06:09:02;;;;;;;4.82;3.40;;;;;;;;;;5084502;28;20028;-43
2023/11/14 06:11:29;;;;;;;6.13;3.47;;;;;;;;;;5084518;28;20039;-44
2023/11/14 06:13:55;;;;;;;5.43;3.45;;;;;;;;;;5084277;28;20076;-42
2023/11/14 06:16:22;;;;;;;9.25;4.60;;;;;;;;;;5084279;28;20340;-44
2023/11/14 06:18:49;;;;;;;8.30;4.25;;;;;;;;;;5084390;28;20088;-44
2023/11/14 06:21:15;;;;;;;5.53;3.97;;;;;;;;;;5083930;28;20020;-42
2023/11/14 06:23:42;;;;;;;9.23;4.47;;;;;;;;;;5084247;28;20035;-44
2023/11/14 06:26:08;;;;;;;6.72;4.13;;;;;;;;;;5084042;28;20036;-42
2023/11/14 06:28:35;;;;;;;6.63;3.70;;;;;;;;;;5084227;28;20016;-43
2023/11/14 06:31:02;;;;;;;7.20;3.72;;;;;;;;;;5084027;28;20037;-42
2023/11/14 06:33:32;;;;;;;5.35;3.30;;;;;;;;;;5084102;28;20105;-42
2023/11/14 06:35:59;;;;;;;5.70;3.13;;;;;;;;;;5083851;28;20020;-43
2023/11/14 06:38:26;;;;;;;5.65;3.33;;;;;;;;;;5083939;28;20376;-44
2023/11/14 06:40:53;;;;;;;6.43;3.63;;;;;;;;;;5083838;28;20058;-46
2023/11/14 06:43:19;;;;;;;6.18;2.95;;;;;;;;;;5083830;28;20056;-44
2023/11/14 06:45:46;;;;;;;6.05;2.70;;;;;;;;;;5083938;28;20075;-44
2023/11/14 06:48:12;;;;;;;4.45;2.78;;;;;;;;;;5083828;28;20012;-45
2023/11/14 06:50:40;;;;;;;5.57;3.25;;;;;;;;;;5083710;28;20068;-44
2023/11/14 06:53:10;;;;;;;5.68;2.80;;;;;;;;;;5083757;28;20279;-45
2023/11/14 06:55:37;;;;;;;4.78;2.50;;;;;;;;;;5084084;28;20020;-47
2023/11/14 06:58:03;;;;;;;5.28;3.03;;;;;;;;;;5083577;28;20039;-47
2023/11/14 07:00:31;;;;;;;7.32;2.97;;;;;;;;;;5083849;28;20036;-48
2023/11/14 07:02:58;;;;;;;14.52;3.38;;;;;;;;;;5083482;28;20021;-48
2023/11/14 07:05:25;;;;;;;22.58;3.55;;;;;;;;;;5083587;28;20025;-48
2023/11/14 07:07:54;;;;;;;15.93;3.85;;;;;;;;;;5083646;28;20029;-47
2023/11/14 07:10:21;;;;;;;11.63;3.75;;;;;;;;;;5083614;28;20025;-44
2023/11/14 07:12:47;;;;;;;9.77;3.65;;;;;;;;;;5083595;28;20328;-47
2023/11/14 07:15:14;;;;;;;10.35;3.63;;;;;;;;;;5084068;28;20047;-43
2023/11/14 07:17:41;;;;;;;8.82;3.80;;;;;;;;;;5083539;28;20135;-44
2023/11/14 07:20:10;;;;;;;6.63;3.50;;;;;;;;;;5088650;28;20233;-44
2023/11/14 07:22:40;;;;;;;7.47;3.40;;;;;;;;;;5099327;28;20037;-53
2023/11/14 07:25:09;;;;;;;5.78;3.50;;;;;;;;;;5083943;28;20178;-42
2023/11/14 07:27:38;;;;;;;8.57;3.50;;;;;;;;;;5083375;28;20044;-42
2023/11/14 07:30:05;;;;;;;5.10;3.03;;;;;;;;;;5083863;28;20028;-43
2023/11/14 07:32:32;;;;;;;4.93;3.33;;;;;;;;;;5083500;28;20068;-46
2023/11/14 07:34:58;;;;;;;5.93;3.38;;;;;;;;;;5087016;28;20078;-43
2023/11/14 07:37:25;;;;;;;4.15;3.08;;;;;;;;;;5087323;28;20025;-44
2023/11/14 07:39:51;;;;;;;5.90;3.10;;;;;;;;;;5097824;28;20095;-43
2023/11/14 07:42:18;;;;;;;6.25;3.58;;;;;;;;;;5105954;28;20024;-51
2023/11/14 07:44:45;;;;;;;6.78;3.50;;;;;;;;;;5107164;28;20040;-55
2023/11/14 07:47:11;;;;;;;7.18;3.15;;;;;;;;;;5107075;28;20031;-45
2023/11/14 07:49:39;;;;;;;4.18;2.92;;;;;;;;;;5107079;28;20101;-45
2023/11/14 07:52:07;;;;;;;5.57;3.30;;;;;;;;;;5107140;28;20031;-43
2023/11/14 07:54:33;;;;;;;4.53;3.00;;;;;;;;;;5107297;28;20239;-46
2023/11/14 07:57:02;;;;;;;4.60;3.00;;;;;;;;;;5106940;28;20027;-44
2023/11/14 07:59:30;;;;;;;3.80;3.33;;;;;;;;;;5107378;28;20035;-42
2023/11/14 08:01:57;;;;;;;4.93;3.20;;;;;;;;;;5106972;28;20302;-43
2023/11/14 08:04:27;;;;;;;5.68;3.38;;;;;;;;;;5106954;28;20031;-42
2023/11/14 08:06:54;;;;;;;3.88;3.15;;;;;;;;;;5106856;28;20046;-42
2023/11/14 08:09:20;;;;;;;5.28;2.83;;;;;;;;;;5107029;28;20027;-43
2023/11/14 08:11:47;;;;;;;6.85;3.22;;;;;;;;;;5106694;28;20016;-45
2023/11/14 08:14:14;;;;;;;5.57;3.00;;;;;;;;;;5106746;28;20040;-51
2023/11/14 08:16:41;;;;;;;4.03;3.03;;;;;;;;;;5106485;28;20016;-43
2023/11/14 08:19:07;;;;;;;4.07;2.97;;;;;;;;;;5106731;28;20028;-43
2023/11/14 08:21:34;;;;;;;4.63;2.75;;;;;;;;;;5106632;28;20043;-45
2023/11/14 08:24:00;;;;;;;4.70;2.53;;;;;;;;;;5106667;28;20035;-41
2023/11/14 08:26:27;;;;;;;5.18;2.75;;;;;;;;;;5106800;28;20081;-47
2023/11/14 08:28:54;;;;;;;4.57;2.70;;;;;;;;;;5106456;28;20351;-43
2023/11/14 08:31:20;;;;;;;3.25;2.13;;;;;;;;;;5106526;28;20316;-47
2023/11/14 08:33:47;;;;;;;4.28;2.40;;;;;;;;;;5106612;28;20038;-46
2023/11/14 08:36:14;;;;;;;3.55;2.30;;;;;;;;;;5106274;28;20095;-42
2023/11/14 08:38:41;;;;;;;3.70;2.28;;;;;;;;;;5106800;28;20060;-52
2023/11/14 08:41:07;;;;;;;2.97;2.22;;;;;;;;;;5106286;28;20031;-45
2023/11/14 08:43:34;;;;;;;2.30;1.83;;;;;;;;;;5106297;28;20327;-52
2023/11/14 08:46:01;;;;;;;2.28;2.03;;;;;;;;;;5105944;28;20020;-45
2023/11/14 08:48:27;;;;;;;2.70;2.00;;;;;;;;;;5106322;28;20024;-44
2023/11/14 08:50:54;;;;;;;4.68;2.47;;;;;;;;;;5105792;28;20090;-43
2023/11/14 08:53:21;;;;;;;4.32;2.28;;;;;;;;;;5106031;28;20048;-43
2023/11/14 08:55:47;;;;;;;2.20;2.00;;;;;;;;;;5106058;28;20020;-44
2023/11/14 08:58:14;;;;;;;2.72;2.30;;;;;;;;;;5105858;28;20032;-51
2023/11/14 09:00:41;;;;;;;2.95;2.03;;;;;;;;;;5106016;28;20319;-45
2023/11/14 09:03:07;;;;;;;3.70;2.30;;;;;;;;;;5105849;28;20304;-45
2023/11/14 09:05:34;;;;;;;2.42;2.20;;;;;;;;;;5105644;28;20359;-43
2023/11/14 09:08:00;;;;;;;4.45;2.10;;;;;;;;;;5105620;28;20053;-44
2023/11/14 09:10:27;;;;;;;3.38;2.22;;;;;;;;;;5105820;28;20339;-47
2023/11/14 09:12:54;;;;;;;2.97;2.00;;;;;;;;;;5105570;28;20031;-44
2023/11/14 09:15:20;;;;;;;3.58;2.53;;;;;;;;;;5105727;28;20024;-44
2023/11/14 09:17:48;;;;;;;2.63;1.92;;;;;;;;;;5105625;28;20257;-43
2023/11/14 09:20:16;;;;;;;3.17;1.90;;;;;;;;;;5105929;28;20043;-45
2023/11/14 09:22:43;;;;;;;2.08;1.88;;;;;;;;;;5105359;28;20051;-47
2023/11/14 09:25:10;;;;;;;2.20;1.80;;;;;;;;;;5105931;28;20026;-45
2023/11/14 09:27:37;;;;;;;2.75;1.80;;;;;;;;;;5105401;28;20030;-49
2023/11/14 09:30:05;;;;;;;2.42;2.08;;;;;;;;;;5105754;28;20372;-44
2023/11/14 09:32:32;;;;;;;2.92;2.45;;;;;;;;;;5105324;28;20062;-43
2023/11/14 09:34:58;;;;;;;3.80;2.10;;;;;;;;;;5105519;28;20206;-45
2023/11/14 09:37:27;;;;;;;3.58;1.95;;;;;;;;;;5105273;28;20016;-49
2023/11/14 09:39:54;;;;;;;2.20;2.00;;;;;;;;;;5105503;28;20024;-51
2023/11/14 09:42:21;;;;;;;2.42;1.80;;;;;;;;;;5104955;28;20091;-45
2023/11/14 09:44:48;;;;;;;3.63;2.00;;;;;;;;;;5105343;28;20020;-43
2023/11/14 09:47:15;;;;;;;4.00;2.10;;;;;;;;;;5105344;28;20304;-45
2023/11/14 09:49:43;;;;;;;3.83;2.15;;;;;;;;;;5104815;28;20077;-46
2023/11/14 09:52:13;;;;;;;3.58;2.35;;;;;;;;;;5104867;28;20111;-47
2023/11/14 09:54:40;;;;;;;2.35;2.00;;;;;;;;;;5105270;28;20074;-45
2023/11/14 09:57:12;;;;;;;2.53;2.13;;;;;;;;;;5104031;28;20340;-49
2023/11/14 09:59:42;;;;;;;2.75;2.22;;;;;;;;;;5105126;28;20024;-46
2023/11/14 10:02:08;;;;;;;3.78;2.28;;;;;;;;;;5104721;28;20043;-50
2023/11/14 10:04:35;;;;;;;3.13;2.55;;;;;;;;;;5104829;28;20216;-49
2023/11/14 10:07:01;;;;;;;2.90;2.40;;;;;;;;;;5104939;28;20200;-46
2023/11/14 10:09:28;;;;;;;3.85;2.67;;;;;;;;;;5104972;28;20032;-50
2023/11/14 10:11:57;;;;;;;3.40;2.67;;;;;;;;;;5104442;28;20073;-49
2023/11/14 10:14:24;;;;;;;3.45;2.47;;;;;;;;;;5104955;28;20031;-46
2023/11/14 10:16:58;;;;;;;4.30;2.75;;;;;;;;;;5104479;28;20039;-47
2023/11/14 10:19:25;;;;;;;3.72;2.28;;;;;;;;;;5104769;28;20089;-48
2023/11/14 10:21:52;;;;;;;4.82;2.70;;;;;;;;;;5104412;28;20032;-45
2023/11/14 10:24:18;;;;;;;4.43;2.47;;;;;;;;;;5104643;28;20065;-46
2023/11/14 10:26:52;;;;;;;3.63;2.72;;;;;;;;;;5104248;28;20094;-46
2023/11/14 10:29:23;;;;;;;4.82;2.72;;;;;;;;;;5104590;28;20032;-47
2023/11/14 10:31:50;;;;;;;3.60;2.72;;;;;;;;;;5104177;28;20028;-47
2023/11/14 10:34:30;;;;;;;4.60;2.50;;;;;;;;;;5104509;28;20024;-45
2023/11/14 10:36:57;;;;;;;3.55;2.40;;;;;;;;;;5102756;28;20032;-46
2023/11/14 10:39:25;;;;;;;5.57;2.83;;;;;;;;;;5104406;28;20488;-46
2023/11/14 10:41:55;;;;;;;6.10;2.95;;;;;;;;;;5104660;28;20061;-45
2023/11/14 10:44:22;;;;;;;5.25;2.47;;;;;;;;;;5104159;28;20040;-46
2023/11/14 10:46:50;;;;;;;4.32;2.72;;;;;;;;;;5103612;28;20028;-49
2023/11/14 10:49:17;;;;;;;3.80;2.47;;;;;;;;;;5104169;28;20040;-48
2023/11/14 10:51:45;;;;;;;9.85;3.15;;;;;;;;;;5103871;28;20269;-48
2023/11/14 10:54:12;;;;;;;5.93;2.70;;;;;;;;;;5104195;28;20036;-48
2023/11/14 10:56:39;;;;;;;4.93;2.80;;;;;;;;;;5103960;28;20020;-47
2023/11/14 10:59:15;;;;;;;4.70;2.90;;;;;;;;;;5103717;28;20058;-53
2023/11/14 11:01:45;;;;;;;5.47;3.08;;;;;;;;;;5093983;28;20095;-46
2023/11/14 11:04:18;;;;;;;5.43;3.15;;;;;;;;;;5097551;28;20044;-47
2023/11/14 11:06:45;;;;;;;3.65;2.97;;;;;;;;;;5096318;28;20028;-46
2023/11/14 11:09:15;;;;;;;5.32;3.00;;;;;;;;;;5107376;28;20036;-51
2023/11/14 11:11:44;;;;;;;5.55;2.90;;;;;;;;;;5107896;28;20024;-46
2023/11/14 11:14:12;;;;;;;6.75;3.83;;;;;;;;;;5104728;28;20027;-45
2023/11/14 11:16:48;;;;;;;24.30;10.23;;;;;;;;;;5101048;28;20024;-45
2023/11/14 11:19:33;;;;;;;40.10;17.52;;;;;;;;;;5098445;28;20053;-49
2023/11/14 11:22:04;;;;;;;23.50;11.00;;;;;;;;;;5096591;28;20057;-44
2023/11/14 11:24:32;;;;;;;25.60;9.10;;;;;;;;;;5096573;28;20050;-47
2023/11/14 11:27:11;;;;;;;18.55;7.25;;;;;;;;;;5096020;28;20329;-49
2023/11/14 11:29:48;;;;;;;16.90;6.80;;;;;;;;;;5095961;28;20209;-45
2023/11/14 11:32:32;;;;;;;11.68;5.78;;;;;;;;;;5107484;28;20028;-50
2023/11/14 11:35:20;;;;;;;13.73;5.50;;;;;;;;;;5104094;28;20032;-46
2023/11/14 11:37:48;;;;;;;6.70;3.03;;;;;;;;;;5119282;28;20036;-50
2023/11/14 11:40:15;;;;;;;9.43;3.95;;;;;;;;;;5128146;28;20031;-47
2023/11/14 11:42:43;;;;;;;6.13;3.10;;;;;;;;;;5127922;28;20263;-44
2023/11/14 11:45:29;;;;;;;8.43;3.50;;;;;;;;;;5127610;28;20019;-44
2023/11/14 11:47:57;;;;;;;8.18;3.33;;;;;;;;;;5127753;28;20027;-51
2023/11/14 11:50:34;;;;;;;6.07;3.15;;;;;;;;;;5127704;28;20379;-44
2023/11/14 11:53:01;;;;;;;5.57;3.00;;;;;;;;;;5127366;28;20031;-49
2023/11/14 11:55:28;;;;;;;7.60;2.85;;;;;;;;;;5119744;28;20099;-48
2023/11/14 11:58:05;;;;;;;4.03;2.60;;;;;;;;;;5095536;28;20181;-45
2023/11/14 12:00:32;;;;;;;4.75;2.55;;;;;;;;;;5097057;28;20095;-48
2023/11/14 12:03:03;;;;;;;5.80;2.40;;;;;;;;;;5095229;28;20025;-47
2023/11/14 12:05:30;;;;;;;5.22;2.63;;;;;;;;;;5096119;28;20020;-43
2023/11/14 12:07:57;;;;;;;3.22;2.30;;;;;;;;;;5097258;28;20320;-53
2023/11/14 12:10:24;;;;;;;5.22;2.50;;;;;;;;;;5095734;28;20024;-52
2023/11/14 12:12:52;;;;;;;7.65;2.60;;;;;;;;;;5095803;28;20315;-51
2023/11/14 12:15:20;;;;;;;5.55;2.60;;;;;;;;;;5097277;28;20028;-47
2023/11/14 12:17:50;;;;;;;4.88;2.50;;;;;;;;;;5096036;28;20020;-50
2023/11/14 12:20:17;;;;;;;6.50;2.00;;;;;;;;;;5094737;28;20064;-43
2023/11/14 12:22:46;;;;;;;3.50;2.10;;;;;;;;;;5099660;28;20028;-42
2023/11/14 12:25:13;;;;;;;3.58;1.80;;;;;;;;;;5096517;28;20092;-42
2023/11/14 12:27:40;;;;;;;5.38;1.95;;;;;;;;;;5094797;28;20016;-45
2023/11/14 12:30:12;;;;;;;4.18;1.83;;;;;;;;;;5096433;28;20095;-44
2023/11/14 12:32:39;;;;;;;3.55;1.83;;;;;;;;;;5097078;28;20030;-48
2023/11/14 12:35:06;;;;;;;3.35;1.60;;;;;;;;;;5106688;28;20020;-50
2023/11/14 12:37:32;;;;;;;3.33;1.67;;;;;;;;;;5106427;28;20350;-44
2023/11/14 12:40:10;;;;;;;3.67;1.40;;;;;;;;;;5106681;28;20059;-52
2023/11/14 12:42:37;;;;;;;4.28;1.40;;;;;;;;;;5106322;28;20035;-51
2023/11/14 12:45:05;;;;;;;4.32;1.75;;;;;;;;;;5106678;28;20043;-46
2023/11/14 12:47:39;;;;;;;3.80;1.30;;;;;;;;;;5098308;28;20081;-43
2023/11/14 12:50:06;;;;;;;3.47;1.52;;;;;;;;;;5096545;28;20050;-52
2023/11/14 12:52:37;;;;;;;3.35;1.40;;;;;;;;;;5104124;28;20039;-47
2023/11/14 12:55:05;;;;;;;1.77;1.20;;;;;;;;;;5106308;28;20040;-50
2023/11/14 12:57:32;;;;;;;8.80;1.50;;;;;;;;;;5106064;28;20028;-47
2023/11/14 13:00:00;;;;;;;2.50;1.33;;;;;;;;;;5106369;28;20031;-44
2023/11/14 13:02:27;;;;;;;4.03;1.40;;;;;;;;;;5105727;28;20008;-47
2023/11/14 13:04:55;;;;;;;2.72;1.20;;;;;;;;;;5103027;28;20039;-46
2023/11/14 13:07:21;;;;;;;1.70;1.30;;;;;;;;;;5096244;28;20092;-49
2023/11/14 13:09:49;;;;;;;2.28;1.20;;;;;;;;;;5095128;28;20170;-44
2023/11/14 13:12:17;;;;;;;2.22;1.23;;;;;;;;;;5094310;28;20070;-44
2023/11/14 13:14:44;;;;;;;4.85;1.35;;;;;;;;;;5094161;28;20032;-43
2023/11/14 13:17:12;;;;;;;3.90;1.40;;;;;;;;;;5094942;28;20305;-47
2023/11/14 13:19:39;;;;;;;3.20;1.42;;;;;;;;;;5094779;28;20035;-47
2023/11/14 13:22:06;;;;;;;3.35;1.33;;;;;;;;;;5095084;28;20024;-45
2023/11/14 13:24:36;;;;;;;4.72;1.48;;;;;;;;;;5093866;28;20099;-44
2023/11/14 13:27:03;;;;;;;5.75;1.45;;;;;;;;;;5094883;28;20307;-43
2023/11/14 13:29:30;;;;;;;2.35;1.40;;;;;;;;;;5095875;28;20025;-47
2023/11/14 13:31:56;;;;;;;3.33;1.50;;;;;;;;;;5092465;28;20051;-43
2023/11/14 13:34:23;;;;;;;3.70;1.42;;;;;;;;;;5095234;28;20216;-44
2023/11/14 13:36:50;;;;;;;2.58;1.50;;;;;;;;;;5095383;28;20032;-44
2023/11/14 13:39:17;;;;;;;4.05;1.42;;;;;;;;;;5093567;28;20020;-44
2023/11/14 13:41:43;;;;;;;3.63;1.35;;;;;;;;;;5094616;28;20096;-43
2023/11/14 13:44:10;;;;;;;3.20;1.23;;;;;;;;;;5095441;28;20032;-43
2023/11/14 13:46:36;;;;;;;7.25;1.70;;;;;;;;;;5093472;28;20021;-50
2023/11/14 13:49:03;;;;;;;3.60;1.40;;;;;;;;;;5094636;28;20035;-44
2023/11/14 13:51:30;;;;;;;1.83;1.50;;;;;;;;;;5095204;28;20035;-44
2023/11/14 13:53:57;;;;;;;2.67;1.55;;;;;;;;;;5093290;28;20024;-45
2023/11/14 13:56:23;;;;;;;3.17;1.40;;;;;;;;;;5094340;28;20036;-44
2023/11/14 13:58:50;;;;;;;5.53;1.40;;;;;;;;;;5095292;28;20028;-45
2023/11/14 14:01:17;;;;;;;3.40;1.50;;;;;;;;;;5093075;28;20017;-43
2023/11/14 14:03:43;;;;;;;2.33;1.65;;;;;;;;;;5094316;28;20032;-46
2023/11/14 14:06:10;;;;;;;2.53;1.35;;;;;;;;;;5094962;28;20119;-47
2023/11/14 14:08:37;;;;;;;2.55;1.30;;;;;;;;;;5092911;28;20024;-44
2023/11/14 14:11:07;;;;;;;3.47;1.42;;;;;;;;;;5094069;28;20034;-44
2023/11/14 14:13:34;;;;;;;2.75;1.30;;;;;;;;;;5094837;28;20101;-51
2023/11/14 14:16:00;;;;;;;4.25;1.50;;;;;;;;;;5096152;28;20068;-48
2023/11/14 14:18:27;;;;;;;3.42;1.40;;;;;;;;;;5104540;28;20039;-45
2023/11/14 14:21:00;;;;;;;1.50;1.08;;;;;;;;;;5104415;28;20032;-46
2023/11/14 14:23:27;;;;;;;2.65;1.40;;;;;;;;;;5100941;28;20130;-47
2023/11/14 14:25:55;;;;;;;4.03;1.48;;;;;;;;;;5104446;28;20030;-43
2023/11/14 14:28:28;;;;;;;7.32;1.88;;;;;;;;;;5104337;28;20020;-43
2023/11/14 14:30:57;;;;;;;7.50;2.22;;;;;;;;;;5104515;28;20024;-44
2023/11/14 14:33:23;;;;;;;8.10;1.60;;;;;;;;;;5104373;28;20059;-43
2023/11/14 14:35:52;;;;;;;5.38;1.70;;;;;;;;;;5104298;28;20193;-45
2023/11/14 14:38:22;;;;;;;4.32;1.35;;;;;;;;;;5104272;28;20036;-47
2023/11/14 14:40:49;;;;;;;4.22;1.88;;;;;;;;;;5104153;28;20042;-44
2023/11/14 14:43:16;;;;;;;7.65;1.85;;;;;;;;;;5103580;28;20051;-46